createdAt,value
2023-05-05T00:01:51.565Z,100.00
2023-05-05T00:04:22.741Z,100.00
2023-05-05T00:06:51.136Z,100.00
2023-05-05T00:09:19.053Z,100.00
2023-05-05T00:11:47.105Z,100.00
2023-05-05T00:14:15.107Z,100.00
2023-05-05T00:16:43.166Z,100.00
2023-05-05T00:19:11.305Z,100.00
2023-05-05T00:21:39.214Z,100.00
2023-05-05T00:24:07.365Z,100.00
2023-05-05T00:26:35.350Z,100.00
2023-05-05T00:29:04.339Z,100.00
2023-05-05T00:31:32.391Z,100.00
2023-05-05T00:34:00.623Z,100.00
2023-05-05T00:36:28.722Z,100.00
2023-05-05T00:38:56.652Z,100.00
2023-05-05T00:41:25.204Z,100.00
2023-05-05T00:43:53.248Z,100.00
2023-05-05T00:46:27.290Z,100.00
2023-05-05T00:48:56.450Z,100.00
2023-05-05T00:51:25.723Z,100.00
2023-05-05T00:53:54.372Z,100.00
2023-05-05T00:56:22.443Z,100.00
2023-05-05T00:58:50.904Z,100.00
2023-05-05T01:01:19.890Z,100.00
2023-05-05T01:03:48.006Z,100.00
2023-05-05T01:06:16.089Z,100.00
2023-05-05T01:09:01.864Z,100.00
2023-05-05T01:11:39.050Z,100.00
2023-05-05T01:14:16.544Z,100.00
2023-05-05T01:16:56.837Z,100.00
2023-05-05T01:20:13.559Z,100.00
2023-05-05T01:22:55.040Z,100.00
2023-05-05T01:25:49.173Z,100.00
2023-05-05T01:28:36.095Z,100.00
2023-05-05T01:31:36.356Z,100.00
2023-05-05T01:34:09.985Z,100.00
2023-05-05T01:36:43.221Z,100.00
2023-05-05T01:39:16.350Z,100.00
2023-05-05T01:41:48.663Z,100.00
2023-05-05T01:44:19.031Z,100.00
2023-05-05T01:46:49.137Z,100.00
2023-05-05T01:49:17.391Z,100.00
2023-05-05T01:51:48.199Z,100.00
2023-05-05T01:54:18.880Z,100.00
2023-05-05T01:56:49.333Z,100.00
2023-05-05T01:59:18.856Z,100.00
2023-05-05T02:01:50.165Z,100.00
2023-05-05T02:04:22.885Z,100.00
2023-05-05T02:06:53.362Z,100.00
2023-05-05T02:09:25.417Z,100.00
2023-05-05T02:11:57.237Z,100.00
2023-05-05T02:14:28.932Z,100.00
2023-05-05T02:16:58.378Z,100.00
2023-05-05T02:19:38.637Z,100.00
2023-05-05T02:22:06.914Z,100.00
2023-05-05T02:24:35.021Z,100.00
2023-05-05T02:27:06.440Z,100.00
2023-05-05T02:29:38.209Z,100.00
2023-05-05T02:32:11.628Z,100.00
2023-05-05T02:34:42.322Z,100.00
2023-05-05T02:37:18.272Z,100.00
2023-05-05T02:39:58.503Z,100.00
2023-05-05T02:42:37.103Z,100.00
2023-05-05T02:45:12.346Z,100.00
2023-05-05T02:47:42.270Z,100.00
2023-05-05T02:50:12.128Z,100.00
2023-05-05T02:52:44.725Z,100.00
2023-05-05T02:55:13.848Z,100.00
2023-05-05T02:57:50.065Z,100.00
2023-05-05T03:00:21.201Z,100.00
2023-05-05T03:03:05.994Z,100.00
2023-05-05T03:05:56.018Z,100.00
2023-05-05T03:08:34.078Z,100.00
2023-05-05T03:11:08.220Z,100.00
2023-05-05T03:13:43.107Z,100.00
2023-05-05T03:16:15.549Z,100.00
2023-05-05T03:18:45.685Z,100.00
2023-05-05T03:21:14.375Z,100.00
2023-05-05T03:23:42.938Z,100.00
2023-05-05T03:26:18.913Z,100.00
2023-05-05T03:28:47.645Z,100.00
2023-05-05T03:31:22.738Z,100.00
2023-05-05T03:33:54.530Z,100.00
2023-05-05T03:36:25.073Z,100.00
2023-05-05T03:38:53.980Z,100.00
2023-05-05T03:41:23.970Z,100.00
2023-05-05T03:43:52.791Z,100.00
2023-05-05T03:46:21.086Z,100.00
2023-05-05T03:48:49.253Z,100.00
2023-05-05T03:51:17.423Z,100.00
2023-05-05T03:53:45.440Z,100.00
2023-05-05T03:56:13.551Z,100.00
2023-05-05T03:58:42.296Z,100.00
2023-05-05T04:01:10.938Z,100.00
2023-05-05T04:03:39.412Z,100.00
2023-05-05T04:06:07.498Z,100.00
2023-05-05T04:08:36.234Z,100.00
2023-05-05T04:11:04.290Z,100.00
2023-05-05T04:13:33.166Z,100.00
2023-05-05T04:16:01.678Z,100.00
2023-05-05T04:18:29.980Z,100.00
2023-05-05T04:20:58.003Z,100.00
2023-05-05T04:23:26.003Z,100.00
2023-05-05T04:25:53.999Z,100.00
2023-05-05T04:28:22.335Z,100.00
2023-05-05T04:30:50.872Z,100.00
2023-05-05T04:33:19.685Z,100.00
2023-05-05T04:35:49.120Z,100.00
2023-05-05T04:38:17.348Z,100.00
2023-05-05T04:40:46.348Z,100.00
2023-05-05T04:43:14.806Z,100.00
2023-05-05T04:45:52.874Z,100.00
2023-05-05T04:48:21.846Z,100.00
2023-05-05T04:50:49.929Z,100.00
2023-05-05T04:53:18.148Z,100.00
2023-05-05T04:55:46.485Z,100.00
2023-05-05T04:58:14.461Z,100.00
2023-05-05T05:00:42.472Z,100.00
2023-05-05T05:03:10.938Z,100.00
2023-05-05T05:05:39.033Z,100.00
2023-05-05T05:08:06.992Z,100.00
2023-05-05T05:10:35.992Z,100.00
2023-05-05T05:13:04.178Z,100.00
2023-05-05T05:15:32.485Z,100.00
2023-05-05T05:18:00.549Z,100.00
2023-05-05T05:20:30.726Z,100.00
2023-05-05T05:23:02.350Z,100.00
2023-05-05T05:25:31.237Z,100.00
2023-05-05T05:28:09.487Z,100.00
2023-05-05T05:30:40.377Z,100.00
2023-05-05T05:33:09.259Z,100.00
2023-05-05T05:35:37.996Z,100.00
2023-05-05T05:38:06.758Z,100.00
2023-05-05T05:40:35.165Z,100.00
2023-05-05T05:43:04.392Z,100.00
2023-05-05T05:45:33.762Z,100.00
2023-05-05T05:48:03.735Z,100.00
2023-05-05T05:50:32.711Z,100.00
2023-05-05T05:53:00.983Z,100.00
2023-05-05T05:55:29.673Z,100.00
2023-05-05T05:57:58.171Z,100.00
2023-05-05T06:00:27.298Z,100.00
2023-05-05T06:02:59.667Z,100.00
2023-05-05T06:05:31.492Z,100.00
2023-05-05T06:08:00.277Z,100.00
2023-05-05T06:10:29.123Z,100.00
2023-05-05T06:13:02.586Z,100.00
2023-05-05T06:15:31.495Z,100.00
2023-05-05T06:18:00.561Z,100.00
2023-05-05T06:20:29.079Z,100.00
2023-05-05T06:22:57.676Z,100.00
2023-05-05T06:25:27.143Z,100.00
2023-05-05T06:27:55.282Z,100.00
2023-05-05T06:30:23.512Z,100.00
2023-05-05T06:32:52.076Z,100.00
2023-05-05T06:35:20.962Z,100.00
2023-05-05T06:37:49.155Z,100.00
2023-05-05T06:40:17.374Z,100.00
2023-05-05T06:42:45.824Z,100.00
2023-05-05T06:45:18.519Z,100.00
2023-05-05T06:47:47.143Z,100.00
2023-05-05T06:50:15.442Z,100.00
2023-05-05T06:52:43.883Z,100.00
2023-05-05T06:55:12.364Z,100.00
2023-05-05T06:57:40.624Z,100.00
2023-05-05T07:00:12.026Z,100.00
2023-05-05T07:02:40.766Z,100.00
2023-05-05T07:05:09.238Z,100.00
2023-05-05T07:07:38.465Z,100.00
2023-05-05T07:10:07.854Z,100.00
2023-05-05T07:12:36.460Z,100.00
2023-05-05T07:15:12.392Z,100.00
2023-05-05T07:17:52.288Z,100.00
2023-05-05T07:22:41.460Z,100.00
2023-05-05T07:25:09.891Z,100.00
2023-05-05T07:27:38.960Z,100.00
2023-05-05T07:30:12.319Z,100.00
2023-05-05T07:32:41.712Z,100.00
2023-05-05T07:35:10.089Z,100.00
2023-05-05T07:37:38.387Z,100.00
2023-05-05T07:40:07.884Z,100.00
2023-05-05T07:42:37.185Z,100.00
2023-05-05T07:45:09.586Z,100.00
2023-05-05T07:47:38.297Z,100.00
2023-05-05T07:50:07.240Z,100.00
2023-05-05T07:55:10.824Z,100.00
2023-05-05T07:57:39.706Z,100.00
2023-05-05T08:00:09.774Z,100.00
2023-05-05T08:02:41.884Z,100.00
2023-05-05T08:05:10.307Z,100.00
2023-05-05T08:07:41.645Z,100.00
2023-05-05T08:10:13.580Z,100.00
2023-05-05T08:12:42.608Z,100.00
2023-05-05T08:15:11.603Z,100.00
2023-05-05T08:17:53.713Z,100.00
2023-05-05T08:20:22.752Z,100.00
2023-05-05T08:22:51.950Z,100.00
2023-05-05T08:25:20.702Z,100.00
2023-05-05T08:27:49.002Z,100.00
2023-05-05T08:30:21.100Z,100.00
2023-05-05T08:32:49.625Z,100.00
2023-05-05T08:35:18.190Z,100.00
2023-05-05T08:37:46.624Z,100.00
2023-05-05T08:40:15.187Z,100.00
2023-05-05T08:42:46.644Z,100.00
2023-05-05T08:45:14.862Z,100.00
2023-05-05T08:47:43.645Z,100.00
2023-05-05T08:50:12.708Z,100.00
2023-05-05T08:52:46.845Z,100.00
2023-05-05T08:55:27.610Z,100.00
2023-05-05T08:57:58.184Z,100.00
2023-05-05T09:00:28.239Z,100.00
2023-05-05T09:02:58.605Z,100.00
2023-05-05T09:05:27.505Z,100.00
2023-05-05T09:07:56.319Z,100.00
2023-05-05T09:10:26.446Z,100.00
2023-05-05T09:12:54.957Z,100.00
2023-05-05T09:15:23.776Z,100.00
2023-05-05T09:17:52.429Z,100.00
2023-05-05T09:20:21.324Z,100.00
2023-05-05T09:22:50.732Z,100.00
2023-05-05T09:25:19.769Z,100.00
2023-05-05T09:27:49.779Z,100.00
2023-05-05T09:30:24.779Z,100.00
2023-05-05T09:32:54.765Z,100.00
2023-05-05T09:35:24.035Z,100.00
2023-05-05T09:37:52.342Z,100.00
2023-05-05T09:40:22.279Z,100.00
2023-05-05T09:43:01.447Z,100.00
2023-05-05T09:45:30.523Z,100.00
2023-05-05T09:48:00.181Z,100.00
2023-05-05T09:50:30.973Z,100.00
2023-05-05T09:53:03.671Z,100.00
2023-05-05T09:55:32.170Z,100.00
2023-05-05T09:58:28.938Z,100.00
2023-05-05T10:00:59.040Z,100.00
2023-05-05T10:03:27.671Z,100.00
2023-05-05T10:05:58.067Z,100.00
2023-05-05T10:08:29.461Z,100.00
2023-05-05T10:11:06.777Z,100.00
2023-05-05T10:13:38.431Z,100.00
2023-05-05T10:16:09.633Z,100.00
2023-05-05T10:18:41.645Z,100.00
2023-05-05T10:21:13.092Z,100.00
2023-05-05T10:23:49.108Z,100.00
2023-05-05T10:26:21.796Z,100.00
2023-05-05T10:29:01.863Z,100.00
2023-05-05T10:31:42.030Z,100.00
2023-05-05T10:34:13.578Z,100.00
2023-05-05T10:36:42.331Z,100.00
2023-05-05T10:39:12.070Z,100.00
2023-05-05T10:41:40.208Z,100.00
2023-05-05T10:44:10.962Z,100.00
2023-05-05T10:46:39.812Z,100.00
2023-05-05T10:49:17.518Z,100.00
2023-05-05T10:52:00.499Z,100.00
2023-05-05T10:54:38.367Z,100.00
2023-05-05T10:57:11.060Z,100.00
2023-05-05T10:59:40.889Z,100.00
2023-05-05T11:02:37.413Z,100.00
2023-05-05T11:05:18.553Z,100.00
2023-05-05T11:07:51.862Z,100.00
2023-05-05T11:10:21.341Z,100.00
2023-05-05T11:12:57.928Z,100.00
2023-05-05T11:15:26.398Z,100.00
2023-05-05T11:17:56.916Z,100.00
2023-05-05T11:20:37.795Z,98.39
2023-05-05T11:23:05.929Z,94.89
2023-05-05T11:25:38.244Z,98.21
2023-05-05T11:28:08.408Z,91.15
2023-05-05T11:30:57.581Z,89.53
2023-05-05T11:33:30.697Z,90.97
2023-05-05T11:36:12.087Z,87.36
2023-05-05T11:38:49.568Z,93.12
2023-05-05T11:41:21.366Z,96.20
2023-05-05T11:43:49.761Z,97.39
2023-05-05T11:46:18.154Z,97.40
2023-05-05T11:48:53.113Z,94.32
2023-05-05T11:51:22.388Z,99.39
2023-05-05T11:53:51.245Z,99.40
2023-05-05T11:56:22.053Z,98.59
2023-05-05T11:59:07.259Z,98.33
2023-05-05T12:01:39.725Z,96.80
2023-05-05T12:04:16.209Z,99.32
2023-05-05T12:06:46.349Z,99.21
2023-05-05T12:09:22.185Z,93.57
2023-05-05T12:11:56.133Z,96.90
2023-05-05T12:14:26.019Z,98.71
2023-05-05T12:17:06.985Z,99.71
2023-05-05T12:19:36.318Z,100.00
2023-05-05T12:22:05.249Z,96.52
2023-05-05T12:24:33.612Z,97.77
2023-05-05T12:27:09.061Z,98.13
2023-05-05T12:29:37.406Z,96.08
2023-05-05T12:32:27.765Z,97.16
2023-05-05T12:34:58.879Z,92.74
2023-05-05T12:37:27.766Z,96.44
2023-05-05T12:39:55.819Z,95.52
2023-05-05T12:42:24.303Z,95.88
2023-05-05T12:44:52.839Z,96.54
2023-05-05T12:47:32.083Z,97.91
2023-05-05T12:50:00.917Z,100.00
2023-05-05T12:52:43.250Z,100.00
2023-05-05T12:55:12.312Z,97.13
2023-05-05T12:58:00.986Z,96.49
2023-05-05T13:00:29.349Z,89.06
2023-05-05T13:02:58.265Z,93.82
2023-05-05T13:05:34.500Z,95.07
2023-05-05T13:08:03.121Z,95.47
2023-05-05T13:10:31.618Z,97.36
2023-05-05T13:13:00.031Z,94.22
2023-05-05T13:15:28.348Z,91.15
2023-05-05T13:18:01.258Z,92.64
2023-05-05T13:20:30.101Z,91.68
2023-05-05T13:22:58.404Z,93.92
2023-05-05T13:25:26.961Z,95.81
2023-05-05T13:27:55.222Z,96.60
2023-05-05T13:30:24.101Z,97.01
2023-05-05T13:32:53.277Z,96.01
2023-05-05T13:35:21.909Z,95.88
2023-05-05T13:37:50.384Z,99.00
2023-05-05T13:40:18.913Z,99.00
2023-05-05T13:42:47.605Z,97.47
2023-05-05T13:45:17.735Z,97.28
2023-05-05T13:47:46.366Z,93.30
2023-05-05T13:50:14.751Z,94.29
2023-05-05T13:52:43.321Z,87.20
2023-05-05T13:55:11.595Z,86.61
2023-05-05T13:57:39.951Z,86.11
2023-05-05T14:00:09.203Z,88.63
2023-05-05T14:02:37.597Z,92.25
2023-05-05T14:05:06.618Z,92.11
2023-05-05T14:07:34.856Z,89.70
2023-05-05T14:10:03.307Z,90.75
2023-05-05T14:12:32.029Z,92.08
2023-05-05T14:15:00.755Z,90.54
2023-05-05T14:17:29.421Z,87.86
2023-05-05T14:19:57.943Z,85.40
2023-05-05T14:22:26.782Z,90.64
2023-05-05T14:24:55.390Z,90.10
2023-05-05T14:27:23.981Z,89.38
2023-05-05T14:29:52.150Z,83.50
2023-05-05T14:32:20.769Z,82.90
2023-05-05T14:34:50.441Z,84.73
2023-05-05T14:37:19.206Z,81.99
2023-05-05T14:39:47.659Z,80.32
2023-05-05T14:42:16.158Z,78.88
2023-05-05T14:44:44.670Z,80.80
2023-05-05T14:47:13.005Z,82.29
2023-05-05T14:49:41.472Z,82.88
2023-05-05T14:52:09.962Z,83.52
2023-05-05T14:54:38.268Z,86.55
2023-05-05T14:57:07.023Z,84.40
2023-05-05T14:59:36.102Z,79.62
2023-05-05T15:02:04.364Z,83.79
2023-05-05T15:04:32.518Z,82.03
2023-05-05T15:07:01.472Z,84.08
2023-05-05T15:09:29.786Z,83.68
2023-05-05T15:11:58.093Z,81.46
2023-05-05T15:14:26.690Z,83.33
2023-05-05T15:16:54.980Z,81.55
2023-05-05T15:19:23.122Z,77.54
2023-05-05T15:21:54.217Z,77.48
2023-05-05T15:24:22.521Z,80.06
2023-05-05T15:26:51.506Z,81.20
2023-05-05T15:29:19.804Z,79.02
2023-05-05T15:31:48.628Z,78.65
2023-05-05T15:34:16.905Z,79.18
2023-05-05T15:36:45.415Z,79.40
2023-05-05T15:39:14.007Z,81.40
2023-05-05T15:41:42.329Z,76.61
2023-05-05T15:44:12.522Z,78.99
2023-05-05T15:46:41.431Z,79.39
2023-05-05T15:49:09.669Z,78.19
2023-05-05T15:51:37.849Z,79.38
2023-05-05T15:54:06.183Z,80.26
2023-05-05T15:56:34.620Z,78.83
2023-05-05T15:59:03.485Z,81.80
2023-05-05T16:01:33.919Z,82.87
2023-05-05T16:04:03.730Z,81.89
2023-05-05T16:06:32.470Z,82.73
2023-05-05T16:09:00.862Z,81.21
2023-05-05T16:11:29.294Z,80.27
2023-05-05T16:13:57.371Z,80.89
2023-05-05T16:16:25.531Z,81.41
2023-05-05T16:18:54.118Z,80.08
2023-05-05T16:21:22.597Z,81.30
2023-05-05T16:23:50.890Z,84.22
2023-05-05T16:26:19.207Z,84.88
2023-05-05T16:28:47.346Z,83.57
2023-05-05T16:31:16.049Z,84.09
2023-05-05T16:33:44.425Z,84.80
2023-05-05T16:36:13.276Z,84.54
2023-05-05T16:38:41.853Z,85.74
2023-05-05T16:41:11.572Z,86.70
2023-05-05T16:43:39.753Z,88.51
2023-05-05T16:46:08.169Z,88.27
2023-05-05T16:48:36.481Z,90.52
2023-05-05T16:51:04.862Z,92.37
2023-05-05T16:53:33.387Z,91.33
2023-05-05T16:56:01.456Z,91.90
2023-05-05T16:58:29.702Z,93.70
2023-05-05T17:00:58.081Z,96.53
2023-05-05T17:03:26.820Z,98.47
2023-05-05T17:05:55.223Z,99.38
2023-05-05T17:08:23.597Z,98.84
2023-05-05T17:10:51.740Z,99.71
2023-05-05T17:13:19.879Z,100.00
2023-05-05T17:15:48.105Z,100.00
2023-05-05T17:18:16.547Z,100.00
2023-05-05T17:20:44.821Z,100.00
2023-05-05T17:23:12.847Z,100.00
2023-05-05T17:25:40.780Z,100.00
2023-05-05T17:28:08.865Z,100.00
2023-05-05T17:30:37.817Z,100.00
2023-05-05T17:33:06.364Z,100.00
2023-05-05T17:35:34.548Z,100.00
2023-05-05T17:38:02.608Z,100.00
2023-05-05T17:40:30.574Z,100.00
2023-05-05T17:42:58.598Z,100.00
2023-05-05T17:45:26.792Z,100.00
2023-05-05T17:47:54.758Z,100.00
2023-05-05T17:50:23.063Z,100.00
2023-05-05T17:52:51.105Z,100.00
2023-05-05T17:55:19.550Z,100.00
2023-05-05T17:57:47.696Z,100.00
2023-05-05T18:00:16.109Z,100.00
2023-05-05T18:02:45.185Z,100.00
2023-05-05T18:05:14.741Z,100.00
2023-05-05T18:07:42.812Z,100.00
2023-05-05T18:10:11.246Z,100.00
2023-05-05T18:12:39.418Z,100.00
2023-05-05T18:15:08.191Z,100.00
2023-05-05T18:17:36.452Z,100.00
2023-05-05T18:20:07.211Z,100.00
2023-05-05T18:22:35.348Z,100.00
2023-05-05T18:27:36.157Z,100.00
2023-05-05T18:30:04.901Z,100.00
2023-05-05T18:32:33.847Z,100.00
2023-05-05T18:35:01.904Z,100.00
2023-05-05T18:37:29.960Z,100.00
2023-05-05T18:39:58.023Z,100.00
2023-05-05T18:42:26.270Z,100.00
2023-05-05T18:44:55.071Z,100.00
2023-05-05T18:47:23.814Z,100.00
2023-05-05T18:49:51.856Z,100.00
2023-05-05T18:52:20.097Z,100.00
2023-05-05T18:54:48.089Z,100.00
2023-05-05T18:57:16.179Z,100.00
2023-05-05T18:59:44.058Z,100.00
2023-05-05T19:02:11.991Z,100.00
2023-05-05T19:04:41.679Z,100.00
2023-05-05T19:07:10.131Z,100.00
2023-05-05T19:09:38.092Z,100.00
2023-05-05T19:12:06.354Z,100.00
2023-05-05T19:14:34.500Z,100.00
2023-05-05T19:17:02.766Z,100.00
2023-05-05T19:19:31.173Z,100.00
2023-05-05T19:21:59.954Z,100.00
2023-05-05T19:24:29.744Z,100.00
2023-05-05T19:26:58.164Z,100.00
2023-05-05T19:29:26.297Z,100.00
2023-05-05T19:31:54.322Z,100.00
2023-05-05T19:34:22.629Z,100.00
2023-05-05T19:36:50.673Z,100.00
2023-05-05T19:39:18.977Z,100.00
2023-05-05T19:41:47.091Z,100.00
2023-05-05T19:44:15.130Z,100.00
2023-05-05T19:46:43.101Z,100.00
2023-05-05T19:49:11.393Z,100.00
2023-05-05T19:51:39.766Z,100.00
2023-05-05T19:54:07.821Z,100.00
2023-05-05T19:56:36.515Z,100.00
2023-05-05T19:59:06.594Z,100.00
2023-05-05T20:01:35.681Z,100.00
2023-05-05T20:04:04.018Z,100.00
2023-05-05T20:06:32.968Z,100.00
2023-05-05T20:09:01.242Z,100.00
2023-05-05T20:11:29.243Z,100.00
2023-05-05T20:13:58.150Z,100.00
2023-05-05T20:16:26.547Z,100.00
2023-05-05T20:18:54.609Z,100.00
2023-05-05T20:21:22.870Z,100.00
2023-05-05T20:23:50.998Z,100.00
2023-05-05T20:26:18.894Z,100.00
2023-05-05T20:28:47.016Z,100.00
2023-05-05T20:31:15.221Z,100.00
2023-05-05T20:33:43.265Z,100.00
2023-05-05T20:36:11.521Z,100.00
2023-05-05T20:38:39.574Z,100.00
2023-05-05T20:41:07.551Z,100.00
2023-05-05T20:43:36.797Z,100.00
2023-05-05T20:46:04.845Z,100.00
2023-05-05T20:48:32.892Z,100.00
2023-05-05T20:51:04.050Z,100.00
2023-05-05T20:53:32.634Z,100.00
2023-05-05T20:56:01.106Z,100.00
2023-05-05T20:58:30.095Z,100.00
2023-05-05T21:00:58.186Z,100.00
2023-05-05T21:03:26.281Z,100.00
2023-05-05T21:05:54.618Z,100.00
2023-05-05T21:08:22.666Z,100.00
2023-05-05T21:10:50.662Z,100.00
2023-05-05T21:13:18.690Z,100.00
2023-05-05T21:15:46.656Z,100.00
2023-05-05T21:18:14.746Z,100.00
2023-05-05T21:20:43.239Z,100.00
2023-05-05T21:23:11.982Z,100.00
2023-05-05T21:25:40.214Z,100.00
2023-05-05T21:28:08.388Z,100.00
2023-05-05T21:30:36.430Z,100.00
2023-05-05T21:33:04.715Z,100.00
2023-05-05T21:35:32.700Z,100.00
2023-05-05T21:38:00.805Z,100.00
2023-05-05T21:40:28.886Z,100.00
2023-05-05T21:42:56.957Z,100.00
2023-05-05T21:45:24.996Z,100.00
2023-05-05T21:47:53.112Z,100.00
2023-05-05T21:50:21.363Z,100.00
2023-05-05T21:52:49.427Z,100.00
2023-05-05T21:55:17.636Z,100.00
2023-05-05T21:57:45.791Z,100.00
2023-05-05T22:00:16.952Z,100.00
2023-05-05T22:02:45.435Z,100.00
2023-05-05T22:05:13.593Z,100.00
2023-05-05T22:07:41.580Z,100.00
2023-05-05T22:10:10.438Z,100.00
2023-05-05T22:12:38.724Z,100.00
2023-05-05T22:15:08.245Z,100.00
2023-05-05T22:17:36.833Z,100.00
2023-05-05T22:20:05.334Z,100.00
2023-05-05T22:22:33.381Z,100.00
2023-05-05T22:25:01.385Z,100.00
2023-05-05T22:27:29.370Z,100.00
2023-05-05T22:29:57.744Z,100.00
2023-05-05T22:32:25.888Z,100.00
2023-05-05T22:34:54.056Z,100.00
2023-05-05T22:37:22.174Z,100.00
2023-05-05T22:39:50.530Z,100.00
2023-05-05T22:42:21.448Z,100.00
2023-05-05T22:44:49.578Z,100.00
2023-05-05T22:47:19.285Z,100.00
2023-05-05T22:49:47.352Z,100.00
2023-05-05T22:52:15.537Z,100.00
2023-05-05T22:54:43.418Z,100.00
2023-05-05T22:57:11.920Z,100.00
2023-05-05T22:59:39.831Z,100.00
2023-05-05T23:02:07.799Z,100.00
2023-05-05T23:04:36.375Z,100.00
2023-05-05T23:07:04.482Z,100.00
2023-05-05T23:09:32.534Z,100.00
2023-05-05T23:12:00.834Z,100.00
2023-05-05T23:14:29.004Z,100.00
2023-05-05T23:16:57.220Z,100.00
2023-05-05T23:19:26.462Z,100.00
2023-05-05T23:21:55.059Z,100.00
2023-05-05T23:24:23.163Z,100.00
2023-05-05T23:26:52.231Z,100.00
2023-05-05T23:29:20.940Z,100.00
2023-05-05T23:31:49.027Z,100.00
2023-05-05T23:34:17.566Z,100.00
2023-05-05T23:36:45.613Z,100.00
2023-05-05T23:39:13.577Z,100.00
2023-05-05T23:41:41.661Z,100.00
2023-05-05T23:44:09.529Z,100.00
2023-05-05T23:46:37.486Z,100.00
2023-05-05T23:49:05.608Z,100.00
2023-05-05T23:51:34.220Z,100.00
2023-05-05T23:54:02.364Z,100.00
2023-05-05T23:56:30.572Z,100.00
2023-05-05T23:58:58.599Z,100.00
